sensor_id;sensor_type;location;lat;lon;timestamp;P1;durP1;ratioP1;P2;durP2;ratioP2
23370;SDS011;11858;51.056;3.712;2023-01-24T00:00:37;49.53;;;30.65;;
23370;SDS011;11858;51.056;3.712;2023-01-24T00:03:03;47.75;;;29.17;;
23370;SDS011;11858;51.056;3.712;2023-01-24T00:05:29;51.85;;;29.42;;
23370;SDS011;11858;51.056;3.712;2023-01-24T00:07:58;45.40;;;28.17;;
23370;SDS011;11858;51.056;3.712;2023-01-24T00:10:24;48.13;;;28.70;;
23370;SDS011;11858;51.056;3.712;2023-01-24T00:12:50;44.42;;;28.08;;
23370;SDS011;11858;51.056;3.712;2023-01-24T00:15:16;48.25;;;27.83;;
23370;SDS011;11858;51.056;3.712;2023-01-24T00:17:42;46.20;;;27.80;;
23370;SDS011;11858;51.056;3.712;2023-01-24T00:20:08;46.83;;;27.27;;
23370;SDS011;11858;51.056;3.712;2023-01-24T00:22:34;44.88;;;28.17;;
23370;SDS011;11858;51.056;3.712;2023-01-24T00:25:00;45.30;;;28.25;;
23370;SDS011;11858;51.056;3.712;2023-01-24T00:27:26;48.88;;;29.30;;
23370;SDS011;11858;51.056;3.712;2023-01-24T00:29:51;47.97;;;29.27;;
23370;SDS011;11858;51.056;3.712;2023-01-24T00:32:17;44.60;;;28.55;;
23370;SDS011;11858;51.056;3.712;2023-01-24T00:34:43;51.20;;;30.25;;
23370;SDS011;11858;51.056;3.712;2023-01-24T00:37:09;47.67;;;28.98;;
23370;SDS011;11858;51.056;3.712;2023-01-24T00:39:35;50.50;;;31.40;;
23370;SDS011;11858;51.056;3.712;2023-01-24T00:42:00;48.00;;;29.60;;
23370;SDS011;11858;51.056;3.712;2023-01-24T00:44:26;48.25;;;29.52;;
23370;SDS011;11858;51.056;3.712;2023-01-24T00:46:52;50.47;;;29.85;;
23370;SDS011;11858;51.056;3.712;2023-01-24T00:49:18;48.78;;;29.48;;
23370;SDS011;11858;51.056;3.712;2023-01-24T00:51:45;48.13;;;29.33;;
23370;SDS011;11858;51.056;3.712;2023-01-24T00:54:11;47.30;;;29.30;;
23370;SDS011;11858;51.056;3.712;2023-01-24T00:56:36;47.22;;;29.33;;
23370;SDS011;11858;51.056;3.712;2023-01-24T00:59:02;42.33;;;26.45;;
23370;SDS011;11858;51.056;3.712;2023-01-24T01:01:28;43.20;;;26.65;;
23370;SDS011;11858;51.056;3.712;2023-01-24T01:03:55;42.00;;;26.02;;
23370;SDS011;11858;51.056;3.712;2023-01-24T01:06:21;43.90;;;26.90;;
23370;SDS011;11858;51.056;3.712;2023-01-24T01:08:47;49.50;;;28.63;;
23370;SDS011;11858;51.056;3.712;2023-01-24T01:11:13;47.33;;;28.63;;
23370;SDS011;11858;51.056;3.712;2023-01-24T01:13:39;47.70;;;28.90;;
23370;SDS011;11858;51.056;3.712;2023-01-24T01:16:09;48.58;;;29.10;;
23370;SDS011;11858;51.056;3.712;2023-01-24T01:18:36;49.25;;;28.55;;
23370;SDS011;11858;51.056;3.712;2023-01-24T01:21:02;48.17;;;28.88;;
23370;SDS011;11858;51.056;3.712;2023-01-24T01:23:29;44.88;;;27.45;;
23370;SDS011;11858;51.056;3.712;2023-01-24T01:26:02;46.72;;;27.85;;
23370;SDS011;11858;51.056;3.712;2023-01-24T01:28:29;46.67;;;28.25;;
23370;SDS011;11858;51.056;3.712;2023-01-24T01:30:55;43.97;;;27.73;;
23370;SDS011;11858;51.056;3.712;2023-01-24T01:33:21;46.22;;;28.05;;
23370;SDS011;11858;51.056;3.712;2023-01-24T01:35:48;46.45;;;27.63;;
23370;SDS011;11858;51.056;3.712;2023-01-24T01:38:14;45.33;;;28.10;;
23370;SDS011;11858;51.056;3.712;2023-01-24T01:40:41;50.15;;;29.33;;
23370;SDS011;11858;51.056;3.712;2023-01-24T01:43:41;51.13;;;30.25;;
23370;SDS011;11858;51.056;3.712;2023-01-24T01:46:07;51.65;;;31.30;;
23370;SDS011;11858;51.056;3.712;2023-01-24T01:48:47;48.90;;;29.35;;
23370;SDS011;11858;51.056;3.712;2023-01-24T01:51:25;52.55;;;32.67;;
23370;SDS011;11858;51.056;3.712;2023-01-24T01:53:59;53.70;;;33.17;;
23370;SDS011;11858;51.056;3.712;2023-01-24T01:59:01;53.47;;;32.47;;
23370;SDS011;11858;51.056;3.712;2023-01-24T02:01:30;54.33;;;33.03;;
23370;SDS011;11858;51.056;3.712;2023-01-24T02:04:06;55.00;;;33.00;;
23370;SDS011;11858;51.056;3.712;2023-01-24T02:06:41;49.72;;;31.55;;
23370;SDS011;11858;51.056;3.712;2023-01-24T02:09:14;54.50;;;32.10;;
23370;SDS011;11858;51.056;3.712;2023-01-24T02:11:45;55.65;;;32.13;;
23370;SDS011;11858;51.056;3.712;2023-01-24T02:14:11;58.90;;;34.53;;
23370;SDS011;11858;51.056;3.712;2023-01-24T02:16:58;57.20;;;33.75;;
23370;SDS011;11858;51.056;3.712;2023-01-24T02:22:22;61.00;;;35.28;;
23370;SDS011;11858;51.056;3.712;2023-01-24T02:27:46;57.78;;;34.90;;
23370;SDS011;11858;51.056;3.712;2023-01-24T02:30:12;65.10;;;37.40;;
23370;SDS011;11858;51.056;3.712;2023-01-24T02:32:38;64.05;;;37.78;;
23370;SDS011;11858;51.056;3.712;2023-01-24T02:35:04;63.55;;;36.63;;
23370;SDS011;11858;51.056;3.712;2023-01-24T02:37:30;67.07;;;37.45;;
23370;SDS011;11858;51.056;3.712;2023-01-24T02:40:02;64.03;;;37.30;;
23370;SDS011;11858;51.056;3.712;2023-01-24T02:42:35;66.22;;;38.60;;
23370;SDS011;11858;51.056;3.712;2023-01-24T02:45:20;67.45;;;38.50;;
23370;SDS011;11858;51.056;3.712;2023-01-24T02:47:49;64.80;;;37.40;;
23370;SDS011;11858;51.056;3.712;2023-01-24T02:50:18;60.28;;;36.05;;
23370;SDS011;11858;51.056;3.712;2023-01-24T02:52:45;59.22;;;36.40;;
23370;SDS011;11858;51.056;3.712;2023-01-24T02:55:30;62.85;;;37.10;;
23370;SDS011;11858;51.056;3.712;2023-01-24T02:57:56;64.28;;;37.92;;
23370;SDS011;11858;51.056;3.712;2023-01-24T03:00:35;64.43;;;36.75;;
23370;SDS011;11858;51.056;3.712;2023-01-24T03:03:04;62.83;;;37.47;;
23370;SDS011;11858;51.056;3.712;2023-01-24T03:05:31;65.70;;;37.55;;
23370;SDS011;11858;51.056;3.712;2023-01-24T03:08:15;62.35;;;36.17;;
23370;SDS011;11858;51.056;3.712;2023-01-24T03:10:41;62.13;;;36.50;;
23370;SDS011;11858;51.056;3.712;2023-01-24T03:13:07;59.17;;;34.72;;
23370;SDS011;11858;51.056;3.712;2023-01-24T03:15:51;54.47;;;33.13;;
23370;SDS011;11858;51.056;3.712;2023-01-24T03:18:35;59.00;;;35.15;;
23370;SDS011;11858;51.056;3.712;2023-01-24T03:21:19;57.15;;;33.95;;
23370;SDS011;11858;51.056;3.712;2023-01-24T03:24:04;58.60;;;34.72;;
23370;SDS011;11858;51.056;3.712;2023-01-24T03:26:48;56.80;;;34.10;;
23370;SDS011;11858;51.056;3.712;2023-01-24T03:29:32;57.20;;;33.95;;
23370;SDS011;11858;51.056;3.712;2023-01-24T03:32:17;55.55;;;33.72;;
23370;SDS011;11858;51.056;3.712;2023-01-24T03:35:01;56.53;;;34.00;;
23370;SDS011;11858;51.056;3.712;2023-01-24T03:37:27;58.35;;;34.25;;
23370;SDS011;11858;51.056;3.712;2023-01-24T03:40:12;54.85;;;32.78;;
23370;SDS011;11858;51.056;3.712;2023-01-24T03:42:40;55.85;;;34.47;;
23370;SDS011;11858;51.056;3.712;2023-01-24T03:45:23;56.92;;;34.25;;
23370;SDS011;11858;51.056;3.712;2023-01-24T03:47:51;58.63;;;32.88;;
23370;SDS011;11858;51.056;3.712;2023-01-24T03:50:29;55.22;;;32.58;;
23370;SDS011;11858;51.056;3.712;2023-01-24T03:53:15;55.38;;;32.17;;
23370;SDS011;11858;51.056;3.712;2023-01-24T03:55:42;55.28;;;32.10;;
23370;SDS011;11858;51.056;3.712;2023-01-24T03:58:09;58.80;;;33.40;;
23370;SDS011;11858;51.056;3.712;2023-01-24T04:00:36;60.20;;;34.55;;
23370;SDS011;11858;51.056;3.712;2023-01-24T04:03:02;52.35;;;29.38;;
23370;SDS011;11858;51.056;3.712;2023-01-24T04:05:28;57.88;;;33.92;;
23370;SDS011;11858;51.056;3.712;2023-01-24T04:07:54;54.55;;;32.67;;
23370;SDS011;11858;51.056;3.712;2023-01-24T04:10:21;57.42;;;33.53;;
23370;SDS011;11858;51.056;3.712;2023-01-24T04:12:47;61.20;;;33.22;;
23370;SDS011;11858;51.056;3.712;2023-01-24T04:15:21;55.10;;;31.98;;
23370;SDS011;11858;51.056;3.712;2023-01-24T04:17:48;58.47;;;33.97;;
23370;SDS011;11858;51.056;3.712;2023-01-24T04:20:14;54.67;;;33.20;;
23370;SDS011;11858;51.056;3.712;2023-01-24T04:22:41;53.90;;;32.53;;
23370;SDS011;11858;51.056;3.712;2023-01-24T04:25:07;57.67;;;32.90;;
23370;SDS011;11858;51.056;3.712;2023-01-24T04:27:34;54.22;;;32.10;;
23370;SDS011;11858;51.056;3.712;2023-01-24T04:30:00;53.42;;;31.70;;
23370;SDS011;11858;51.056;3.712;2023-01-24T04:32:27;53.30;;;30.58;;
23370;SDS011;11858;51.056;3.712;2023-01-24T04:34:54;54.85;;;31.60;;
23370;SDS011;11858;51.056;3.712;2023-01-24T04:37:19;49.47;;;29.35;;
23370;SDS011;11858;51.056;3.712;2023-01-24T04:39:45;52.05;;;30.30;;
23370;SDS011;11858;51.056;3.712;2023-01-24T04:42:11;54.65;;;29.98;;
23370;SDS011;11858;51.056;3.712;2023-01-24T04:44:37;46.83;;;27.83;;
23370;SDS011;11858;51.056;3.712;2023-01-24T04:47:02;51.95;;;30.20;;
23370;SDS011;11858;51.056;3.712;2023-01-24T04:49:28;49.58;;;29.55;;
23370;SDS011;11858;51.056;3.712;2023-01-24T04:51:54;51.58;;;30.52;;
23370;SDS011;11858;51.056;3.712;2023-01-24T04:54:20;50.90;;;29.05;;
23370;SDS011;11858;51.056;3.712;2023-01-24T04:56:45;47.50;;;29.23;;
23370;SDS011;11858;51.056;3.712;2023-01-24T04:59:11;49.75;;;29.80;;
23370;SDS011;11858;51.056;3.712;2023-01-24T05:01:38;48.25;;;29.92;;
23370;SDS011;11858;51.056;3.712;2023-01-24T05:04:04;47.38;;;29.30;;
23370;SDS011;11858;51.056;3.712;2023-01-24T05:06:31;51.90;;;30.25;;
23370;SDS011;11858;51.056;3.712;2023-01-24T05:08:57;51.45;;;30.83;;
23370;SDS011;11858;51.056;3.712;2023-01-24T05:11:24;52.22;;;31.05;;
23370;SDS011;11858;51.056;3.712;2023-01-24T05:13:50;53.17;;;32.13;;
23370;SDS011;11858;51.056;3.712;2023-01-24T05:16:17;55.08;;;31.85;;
23370;SDS011;11858;51.056;3.712;2023-01-24T05:18:43;54.72;;;32.35;;
23370;SDS011;11858;51.056;3.712;2023-01-24T05:21:12;58.03;;;33.22;;
23370;SDS011;11858;51.056;3.712;2023-01-24T05:23:39;55.72;;;33.15;;
23370;SDS011;11858;51.056;3.712;2023-01-24T05:26:06;56.90;;;33.10;;
23370;SDS011;11858;51.056;3.712;2023-01-24T05:28:32;50.65;;;30.50;;
23370;SDS011;11858;51.056;3.712;2023-01-24T05:31:02;58.80;;;30.63;;
23370;SDS011;11858;51.056;3.712;2023-01-24T05:33:31;49.10;;;30.10;;
23370;SDS011;11858;51.056;3.712;2023-01-24T05:36:00;51.28;;;31.30;;
23370;SDS011;11858;51.056;3.712;2023-01-24T05:38:28;47.63;;;28.38;;
23370;SDS011;11858;51.056;3.712;2023-01-24T05:40:58;44.30;;;27.65;;
23370;SDS011;11858;51.056;3.712;2023-01-24T05:43:28;48.88;;;28.83;;
23370;SDS011;11858;51.056;3.712;2023-01-24T05:46:02;50.92;;;29.52;;
23370;SDS011;11858;51.056;3.712;2023-01-24T05:48:29;46.17;;;28.50;;
23370;SDS011;11858;51.056;3.712;2023-01-24T05:50:56;48.35;;;28.85;;
23370;SDS011;11858;51.056;3.712;2023-01-24T05:53:28;49.33;;;29.45;;
23370;SDS011;11858;51.056;3.712;2023-01-24T05:55:56;53.25;;;31.42;;
23370;SDS011;11858;51.056;3.712;2023-01-24T05:58:23;56.13;;;32.55;;
23370;SDS011;11858;51.056;3.712;2023-01-24T06:00:50;56.60;;;33.15;;
23370;SDS011;11858;51.056;3.712;2023-01-24T06:03:15;53.38;;;32.22;;
23370;SDS011;11858;51.056;3.712;2023-01-24T06:05:48;51.70;;;29.92;;
23370;SDS011;11858;51.056;3.712;2023-01-24T06:08:16;57.10;;;31.00;;
23370;SDS011;11858;51.056;3.712;2023-01-24T06:10:42;57.05;;;32.08;;
23370;SDS011;11858;51.056;3.712;2023-01-24T06:13:08;50.72;;;30.83;;
23370;SDS011;11858;51.056;3.712;2023-01-24T06:15:35;51.55;;;30.85;;
23370;SDS011;11858;51.056;3.712;2023-01-24T06:18:01;49.60;;;30.13;;
23370;SDS011;11858;51.056;3.712;2023-01-24T06:20:27;53.90;;;31.05;;
23370;SDS011;11858;51.056;3.712;2023-01-24T06:22:56;57.80;;;33.90;;
23370;SDS011;11858;51.056;3.712;2023-01-24T06:25:32;67.10;;;35.97;;
23370;SDS011;11858;51.056;3.712;2023-01-24T06:27:58;63.55;;;36.58;;
23370;SDS011;11858;51.056;3.712;2023-01-24T06:30:24;68.03;;;37.47;;
23370;SDS011;11858;51.056;3.712;2023-01-24T06:32:57;66.60;;;38.35;;
23370;SDS011;11858;51.056;3.712;2023-01-24T06:38:17;70.63;;;39.58;;
23370;SDS011;11858;51.056;3.712;2023-01-24T06:40:45;69.85;;;38.75;;
23370;SDS011;11858;51.056;3.712;2023-01-24T06:43:12;71.68;;;38.85;;
23370;SDS011;11858;51.056;3.712;2023-01-24T06:45:38;69.72;;;39.00;;
23370;SDS011;11858;51.056;3.712;2023-01-24T06:48:04;70.32;;;39.50;;
23370;SDS011;11858;51.056;3.712;2023-01-24T06:50:30;68.93;;;40.60;;
23370;SDS011;11858;51.056;3.712;2023-01-24T06:52:57;77.28;;;39.97;;
23370;SDS011;11858;51.056;3.712;2023-01-24T06:55:23;72.03;;;39.42;;
23370;SDS011;11858;51.056;3.712;2023-01-24T06:57:59;68.43;;;39.10;;
23370;SDS011;11858;51.056;3.712;2023-01-24T07:00:26;70.47;;;40.70;;
23370;SDS011;11858;51.056;3.712;2023-01-24T07:03:00;68.97;;;38.58;;
23370;SDS011;11858;51.056;3.712;2023-01-24T07:05:28;69.97;;;38.05;;
23370;SDS011;11858;51.056;3.712;2023-01-24T07:07:54;69.05;;;37.72;;
23370;SDS011;11858;51.056;3.712;2023-01-24T07:10:20;73.43;;;38.50;;
23370;SDS011;11858;51.056;3.712;2023-01-24T07:12:46;66.88;;;37.88;;
23370;SDS011;11858;51.056;3.712;2023-01-24T07:15:12;67.13;;;37.40;;
23370;SDS011;11858;51.056;3.712;2023-01-24T07:17:38;67.93;;;39.03;;
23370;SDS011;11858;51.056;3.712;2023-01-24T07:20:05;65.28;;;36.72;;
23370;SDS011;11858;51.056;3.712;2023-01-24T07:22:31;68.80;;;39.17;;
23370;SDS011;11858;51.056;3.712;2023-01-24T07:24:57;66.82;;;37.13;;
23370;SDS011;11858;51.056;3.712;2023-01-24T07:27:23;69.28;;;39.13;;
23370;SDS011;11858;51.056;3.712;2023-01-24T07:29:49;67.82;;;38.42;;
23370;SDS011;11858;51.056;3.712;2023-01-24T07:32:15;66.53;;;37.67;;
23370;SDS011;11858;51.056;3.712;2023-01-24T07:34:41;70.90;;;38.88;;
23370;SDS011;11858;51.056;3.712;2023-01-24T07:37:07;65.72;;;37.15;;
23370;SDS011;11858;51.056;3.712;2023-01-24T07:39:33;61.75;;;35.28;;
23370;SDS011;11858;51.056;3.712;2023-01-24T07:41:59;63.40;;;35.85;;
23370;SDS011;11858;51.056;3.712;2023-01-24T07:44:25;62.78;;;34.28;;
23370;SDS011;11858;51.056;3.712;2023-01-24T07:46:51;59.35;;;33.70;;
23370;SDS011;11858;51.056;3.712;2023-01-24T07:49:17;61.28;;;34.47;;
23370;SDS011;11858;51.056;3.712;2023-01-24T07:51:42;61.05;;;34.40;;
23370;SDS011;11858;51.056;3.712;2023-01-24T07:54:10;68.00;;;36.78;;
23370;SDS011;11858;51.056;3.712;2023-01-24T07:56:36;63.75;;;35.22;;
23370;SDS011;11858;51.056;3.712;2023-01-24T07:59:02;63.13;;;34.50;;
23370;SDS011;11858;51.056;3.712;2023-01-24T08:01:28;58.75;;;34.22;;
23370;SDS011;11858;51.056;3.712;2023-01-24T08:03:54;57.22;;;32.10;;
23370;SDS011;11858;51.056;3.712;2023-01-24T08:06:20;58.60;;;33.75;;
23370;SDS011;11858;51.056;3.712;2023-01-24T08:08:46;58.38;;;33.80;;
23370;SDS011;11858;51.056;3.712;2023-01-24T08:11:12;54.95;;;31.75;;
23370;SDS011;11858;51.056;3.712;2023-01-24T08:13:41;51.75;;;30.83;;
23370;SDS011;11858;51.056;3.712;2023-01-24T08:16:07;48.90;;;28.83;;
23370;SDS011;11858;51.056;3.712;2023-01-24T08:18:33;53.00;;;29.73;;
23370;SDS011;11858;51.056;3.712;2023-01-24T08:20:59;55.47;;;31.88;;
23370;SDS011;11858;51.056;3.712;2023-01-24T08:23:25;59.65;;;33.13;;
23370;SDS011;11858;51.056;3.712;2023-01-24T08:25:51;55.30;;;32.45;;
23370;SDS011;11858;51.056;3.712;2023-01-24T08:28:17;65.97;;;34.75;;
23370;SDS011;11858;51.056;3.712;2023-01-24T08:30:43;68.85;;;38.42;;
23370;SDS011;11858;51.056;3.712;2023-01-24T08:33:09;73.40;;;38.97;;
23370;SDS011;11858;51.056;3.712;2023-01-24T08:35:42;73.82;;;39.40;;
23370;SDS011;11858;51.056;3.712;2023-01-24T08:38:09;74.32;;;39.97;;
23370;SDS011;11858;51.056;3.712;2023-01-24T08:40:35;78.18;;;40.65;;
23370;SDS011;11858;51.056;3.712;2023-01-24T08:43:01;72.43;;;39.75;;
23370;SDS011;11858;51.056;3.712;2023-01-24T08:45:27;76.25;;;40.20;;
23370;SDS011;11858;51.056;3.712;2023-01-24T08:47:52;72.55;;;39.30;;
23370;SDS011;11858;51.056;3.712;2023-01-24T08:50:19;76.20;;;41.40;;
23370;SDS011;11858;51.056;3.712;2023-01-24T08:52:45;76.93;;;41.55;;
23370;SDS011;11858;51.056;3.712;2023-01-24T08:55:12;78.47;;;42.22;;
23370;SDS011;11858;51.056;3.712;2023-01-24T08:57:38;73.45;;;41.72;;
23370;SDS011;11858;51.056;3.712;2023-01-24T09:00:04;75.20;;;41.80;;
23370;SDS011;11858;51.056;3.712;2023-01-24T09:02:30;77.40;;;41.97;;
23370;SDS011;11858;51.056;3.712;2023-01-24T09:04:57;78.53;;;42.58;;
23370;SDS011;11858;51.056;3.712;2023-01-24T09:07:23;77.68;;;41.75;;
23370;SDS011;11858;51.056;3.712;2023-01-24T09:09:49;80.05;;;42.25;;
23370;SDS011;11858;51.056;3.712;2023-01-24T09:12:15;78.70;;;42.40;;
23370;SDS011;11858;51.056;3.712;2023-01-24T09:14:41;74.28;;;42.28;;
23370;SDS011;11858;51.056;3.712;2023-01-24T09:17:06;75.85;;;41.20;;
23370;SDS011;11858;51.056;3.712;2023-01-24T09:19:32;76.95;;;42.40;;
23370;SDS011;11858;51.056;3.712;2023-01-24T09:21:58;73.20;;;40.90;;
23370;SDS011;11858;51.056;3.712;2023-01-24T09:24:24;72.38;;;41.20;;
23370;SDS011;11858;51.056;3.712;2023-01-24T09:26:50;79.07;;;43.22;;
23370;SDS011;11858;51.056;3.712;2023-01-24T09:29:16;70.22;;;40.55;;
23370;SDS011;11858;51.056;3.712;2023-01-24T09:31:42;63.97;;;36.45;;
23370;SDS011;11858;51.056;3.712;2023-01-24T09:34:08;64.00;;;37.45;;
23370;SDS011;11858;51.056;3.712;2023-01-24T09:36:33;65.43;;;37.63;;
23370;SDS011;11858;51.056;3.712;2023-01-24T09:38:59;60.95;;;35.80;;
23370;SDS011;11858;51.056;3.712;2023-01-24T09:41:45;58.90;;;34.92;;
23370;SDS011;11858;51.056;3.712;2023-01-24T09:44:44;55.40;;;33.40;;
23370;SDS011;11858;51.056;3.712;2023-01-24T09:47:15;56.05;;;34.45;;
23370;SDS011;11858;51.056;3.712;2023-01-24T09:49:52;52.17;;;31.95;;
23370;SDS011;11858;51.056;3.712;2023-01-24T09:52:34;55.22;;;32.40;;
23370;SDS011;11858;51.056;3.712;2023-01-24T10:00:24;54.97;;;30.63;;
23370;SDS011;11858;51.056;3.712;2023-01-24T10:02:53;52.20;;;30.75;;
23370;SDS011;11858;51.056;3.712;2023-01-24T10:05:21;51.10;;;30.85;;
23370;SDS011;11858;51.056;3.712;2023-01-24T10:24:23;52.65;;;27.98;;
23370;SDS011;11858;51.056;3.712;2023-01-24T10:26:53;45.80;;;27.70;;
23370;SDS011;11858;51.056;3.712;2023-01-24T10:29:22;52.45;;;29.85;;
23370;SDS011;11858;51.056;3.712;2023-01-24T10:34:47;46.22;;;28.55;;
23370;SDS011;11858;51.056;3.712;2023-01-24T10:37:22;56.38;;;30.02;;
23370;SDS011;11858;51.056;3.712;2023-01-24T10:39:51;48.50;;;30.43;;
23370;SDS011;11858;51.056;3.712;2023-01-24T10:42:30;49.70;;;30.63;;
23370;SDS011;11858;51.056;3.712;2023-01-24T10:45:01;48.33;;;30.77;;
23370;SDS011;11858;51.056;3.712;2023-01-24T10:47:49;53.53;;;31.98;;
23370;SDS011;11858;51.056;3.712;2023-01-24T10:50:22;58.85;;;34.35;;
23370;SDS011;11858;51.056;3.712;2023-01-24T10:52:51;54.75;;;32.97;;
23370;SDS011;11858;51.056;3.712;2023-01-24T10:55:33;60.10;;;35.28;;
23370;SDS011;11858;51.056;3.712;2023-01-24T10:58:01;55.25;;;34.33;;
23370;SDS011;11858;51.056;3.712;2023-01-24T11:00:45;59.78;;;34.85;;
23370;SDS011;11858;51.056;3.712;2023-01-24T11:03:24;57.38;;;33.83;;
23370;SDS011;11858;51.056;3.712;2023-01-24T11:05:53;55.65;;;32.63;;
23370;SDS011;11858;51.056;3.712;2023-01-24T11:08:22;58.28;;;34.33;;
23370;SDS011;11858;51.056;3.712;2023-01-24T11:10:56;58.85;;;34.92;;
23370;SDS011;11858;51.056;3.712;2023-01-24T11:13:36;59.58;;;36.03;;
23370;SDS011;11858;51.056;3.712;2023-01-24T11:18:41;57.95;;;35.25;;
23370;SDS011;11858;51.056;3.712;2023-01-24T11:21:17;57.55;;;35.70;;
23370;SDS011;11858;51.056;3.712;2023-01-24T11:23:45;65.55;;;36.85;;
23370;SDS011;11858;51.056;3.712;2023-01-24T11:26:26;62.63;;;37.17;;
23370;SDS011;11858;51.056;3.712;2023-01-24T11:40:34;64.30;;;36.40;;
23370;SDS011;11858;51.056;3.712;2023-01-24T11:57:02;66.25;;;38.35;;
23370;SDS011;11858;51.056;3.712;2023-01-24T12:22:05;53.65;;;32.30;;
23370;SDS011;11858;51.056;3.712;2023-01-24T12:24:43;60.70;;;31.90;;
23370;SDS011;11858;51.056;3.712;2023-01-24T12:27:23;52.63;;;31.92;;
23370;SDS011;11858;51.056;3.712;2023-01-24T12:32:53;51.58;;;31.50;;
23370;SDS011;11858;51.056;3.712;2023-01-24T12:35:31;51.97;;;32.20;;
23370;SDS011;11858;51.056;3.712;2023-01-24T12:38:10;58.20;;;32.42;;
23370;SDS011;11858;51.056;3.712;2023-01-24T12:46:38;54.47;;;34.75;;
23370;SDS011;11858;51.056;3.712;2023-01-24T12:51:51;57.72;;;33.60;;
23370;SDS011;11858;51.056;3.712;2023-01-24T12:54:31;56.08;;;32.13;;
23370;SDS011;11858;51.056;3.712;2023-01-24T13:00:10;57.50;;;33.28;;
23370;SDS011;11858;51.056;3.712;2023-01-24T13:05:25;53.58;;;32.53;;
23370;SDS011;11858;51.056;3.712;2023-01-24T13:13:44;57.00;;;34.22;;
23370;SDS011;11858;51.056;3.712;2023-01-24T13:21:21;53.28;;;33.70;;
23370;SDS011;11858;51.056;3.712;2023-01-24T13:24:06;49.75;;;32.88;;
23370;SDS011;11858;51.056;3.712;2023-01-24T13:32:16;55.97;;;33.00;;
23370;SDS011;11858;51.056;3.712;2023-01-24T13:34:53;52.53;;;32.22;;
23370;SDS011;11858;51.056;3.712;2023-01-24T13:37:24;58.65;;;33.53;;
23370;SDS011;11858;51.056;3.712;2023-01-24T13:42:33;59.10;;;34.35;;
23370;SDS011;11858;51.056;3.712;2023-01-24T13:47:51;56.92;;;34.22;;
23370;SDS011;11858;51.056;3.712;2023-01-24T13:50:19;59.28;;;33.88;;
23370;SDS011;11858;51.056;3.712;2023-01-24T13:52:49;57.55;;;33.92;;
23370;SDS011;11858;51.056;3.712;2023-01-24T14:00:33;64.90;;;35.88;;
23370;SDS011;11858;51.056;3.712;2023-01-24T14:03:15;61.97;;;34.47;;
23370;SDS011;11858;51.056;3.712;2023-01-24T14:05:52;59.78;;;35.22;;
23370;SDS011;11858;51.056;3.712;2023-01-24T14:13:43;63.85;;;35.88;;
23370;SDS011;11858;51.056;3.712;2023-01-24T14:16:12;60.38;;;36.25;;
23370;SDS011;11858;51.056;3.712;2023-01-24T14:21:32;55.42;;;33.42;;
23370;SDS011;11858;51.056;3.712;2023-01-24T14:24:20;58.25;;;34.47;;
23370;SDS011;11858;51.056;3.712;2023-01-24T14:26:54;57.90;;;35.45;;
23370;SDS011;11858;51.056;3.712;2023-01-24T14:29:22;56.70;;;33.80;;
23370;SDS011;11858;51.056;3.712;2023-01-24T14:32:03;58.85;;;34.65;;
23370;SDS011;11858;51.056;3.712;2023-01-24T14:34:43;56.85;;;34.40;;
23370;SDS011;11858;51.056;3.712;2023-01-24T14:37:16;61.15;;;35.17;;
23370;SDS011;11858;51.056;3.712;2023-01-24T14:39:42;60.72;;;36.25;;
23370;SDS011;11858;51.056;3.712;2023-01-24T14:42:12;60.05;;;35.95;;
23370;SDS011;11858;51.056;3.712;2023-01-24T14:44:50;56.97;;;35.33;;
23370;SDS011;11858;51.056;3.712;2023-01-24T14:47:20;55.15;;;33.50;;
23370;SDS011;11858;51.056;3.712;2023-01-24T14:49:54;64.38;;;36.10;;
23370;SDS011;11858;51.056;3.712;2023-01-24T14:52:26;62.08;;;35.88;;
23370;SDS011;11858;51.056;3.712;2023-01-24T14:54:56;59.22;;;36.30;;
23370;SDS011;11858;51.056;3.712;2023-01-24T15:02:50;65.90;;;39.25;;
23370;SDS011;11858;51.056;3.712;2023-01-24T15:05:30;65.70;;;38.50;;
23370;SDS011;11858;51.056;3.712;2023-01-24T15:07:58;64.65;;;38.17;;
23370;SDS011;11858;51.056;3.712;2023-01-24T15:10:27;68.30;;;37.83;;
23370;SDS011;11858;51.056;3.712;2023-01-24T15:13:05;69.80;;;39.67;;
23370;SDS011;11858;51.056;3.712;2023-01-24T15:15:34;69.28;;;39.17;;
23370;SDS011;11858;51.056;3.712;2023-01-24T15:18:04;71.53;;;39.88;;
23370;SDS011;11858;51.056;3.712;2023-01-24T15:20:50;73.78;;;41.63;;
23370;SDS011;11858;51.056;3.712;2023-01-24T15:23:17;74.82;;;39.97;;
23370;SDS011;11858;51.056;3.712;2023-01-24T15:25:46;78.70;;;42.00;;
23370;SDS011;11858;51.056;3.712;2023-01-24T15:28:20;77.40;;;42.13;;
23370;SDS011;11858;51.056;3.712;2023-01-24T15:30:55;80.53;;;42.30;;
23370;SDS011;11858;51.056;3.712;2023-01-24T15:33:25;74.95;;;42.75;;
23370;SDS011;11858;51.056;3.712;2023-01-24T15:36:20;82.68;;;43.22;;
23370;SDS011;11858;51.056;3.712;2023-01-24T15:38:49;83.15;;;43.92;;
23370;SDS011;11858;51.056;3.712;2023-01-24T15:41:24;79.00;;;43.65;;
23370;SDS011;11858;51.056;3.712;2023-01-24T15:44:41;76.05;;;43.72;;
23370;SDS011;11858;51.056;3.712;2023-01-24T15:47:21;78.00;;;43.63;;
23370;SDS011;11858;51.056;3.712;2023-01-24T15:53:22;75.70;;;41.00;;
23370;SDS011;11858;51.056;3.712;2023-01-24T15:55:53;75.13;;;41.35;;
23370;SDS011;11858;51.056;3.712;2023-01-24T15:58:20;72.13;;;40.50;;
23370;SDS011;11858;51.056;3.712;2023-01-24T16:00:52;61.97;;;36.92;;
23370;SDS011;11858;51.056;3.712;2023-01-24T16:03:19;66.55;;;35.92;;
23370;SDS011;11858;51.056;3.712;2023-01-24T16:05:45;65.72;;;37.42;;
23370;SDS011;11858;51.056;3.712;2023-01-24T16:08:11;67.78;;;39.28;;
23370;SDS011;11858;51.056;3.712;2023-01-24T16:10:37;71.80;;;39.88;;
23370;SDS011;11858;51.056;3.712;2023-01-24T16:13:04;67.95;;;38.92;;
23370;SDS011;11858;51.056;3.712;2023-01-24T16:15:30;65.63;;;38.92;;
23370;SDS011;11858;51.056;3.712;2023-01-24T16:17:56;68.50;;;38.20;;
23370;SDS011;11858;51.056;3.712;2023-01-24T16:20:23;70.13;;;39.67;;
23370;SDS011;11858;51.056;3.712;2023-01-24T16:22:52;68.70;;;38.95;;
23370;SDS011;11858;51.056;3.712;2023-01-24T16:25:19;67.97;;;38.58;;
23370;SDS011;11858;51.056;3.712;2023-01-24T16:27:47;59.03;;;36.10;;
23370;SDS011;11858;51.056;3.712;2023-01-24T16:30:17;60.83;;;35.55;;
23370;SDS011;11858;51.056;3.712;2023-01-24T16:32:45;65.25;;;37.60;;
23370;SDS011;11858;51.056;3.712;2023-01-24T16:35:12;78.85;;;41.30;;
23370;SDS011;11858;51.056;3.712;2023-01-24T16:37:38;72.43;;;40.22;;
23370;SDS011;11858;51.056;3.712;2023-01-24T16:40:04;71.45;;;42.30;;
23370;SDS011;11858;51.056;3.712;2023-01-24T16:42:30;73.82;;;42.20;;
23370;SDS011;11858;51.056;3.712;2023-01-24T16:44:59;74.72;;;42.45;;
23370;SDS011;11858;51.056;3.712;2023-01-24T16:47:25;74.07;;;41.95;;
23370;SDS011;11858;51.056;3.712;2023-01-24T16:49:52;75.20;;;42.67;;
23370;SDS011;11858;51.056;3.712;2023-01-24T16:52:19;82.55;;;43.70;;
23370;SDS011;11858;51.056;3.712;2023-01-24T16:54:45;80.07;;;42.50;;
23370;SDS011;11858;51.056;3.712;2023-01-24T16:57:11;79.57;;;44.28;;
23370;SDS011;11858;51.056;3.712;2023-01-24T16:59:37;76.60;;;43.03;;
23370;SDS011;11858;51.056;3.712;2023-01-24T17:02:03;75.97;;;42.50;;
23370;SDS011;11858;51.056;3.712;2023-01-24T17:04:28;67.05;;;36.35;;